createdAt,value
2019-02-19T00:00:25.755Z,28.40
2019-02-19T00:02:54.038Z,27.60
2019-02-19T00:05:22.191Z,27.40
2019-02-19T00:07:50.368Z,26.53
2019-02-19T00:10:18.738Z,27.27
2019-02-19T00:12:46.970Z,26.70
2019-02-19T00:15:15.193Z,25.77
2019-02-19T00:17:43.540Z,25.33
2019-02-19T00:20:11.691Z,23.97
2019-02-19T00:22:39.848Z,23.27
2019-02-19T00:25:08.105Z,21.93
2019-02-19T00:27:36.308Z,23.20
2019-02-19T00:30:04.935Z,23.30
2019-02-19T00:32:33.196Z,22.23
2019-02-19T00:35:03.075Z,22.80
2019-02-19T00:37:32.242Z,21.47
2019-02-19T00:40:00.447Z,20.83
2019-02-19T00:42:28.605Z,21.20
2019-02-19T00:44:56.827Z,22.43
2019-02-19T00:47:25.030Z,22.00
2019-02-19T00:49:53.191Z,21.60
2019-02-19T00:52:21.379Z,20.33
2019-02-19T00:54:49.567Z,20.07
2019-02-19T00:57:17.710Z,23.77
2019-02-19T00:59:45.930Z,21.87
2019-02-19T01:02:14.277Z,21.23
2019-02-19T01:04:42.583Z,22.13
2019-02-19T01:07:10.730Z,21.53
2019-02-19T01:09:38.923Z,23.20
2019-02-19T01:12:07.154Z,21.37
2019-02-19T01:14:35.312Z,22.23
2019-02-19T01:17:03.558Z,21.97
2019-02-19T01:19:31.854Z,21.87
2019-02-19T01:22:00.012Z,21.93
2019-02-19T01:24:28.249Z,21.13
2019-02-19T01:26:56.399Z,23.20
2019-02-19T01:29:24.547Z,24.37
2019-02-19T01:31:52.743Z,27.87
2019-02-19T01:34:20.897Z,27.93
2019-02-19T01:36:49.058Z,27.90
2019-02-19T01:39:18.296Z,27.47
2019-02-19T01:41:46.507Z,26.70
2019-02-19T01:44:14.662Z,25.40
2019-02-19T01:46:43.127Z,26.37
2019-02-19T01:49:11.304Z,25.70
2019-02-19T01:51:39.454Z,24.80
2019-02-19T01:54:07.642Z,24.17
2019-02-19T01:56:35.946Z,22.87
2019-02-19T01:59:04.228Z,23.87
2019-02-19T02:01:32.426Z,21.73
2019-02-19T02:04:00.615Z,22.17
2019-02-19T02:06:28.769Z,22.27
2019-02-19T02:08:57.243Z,21.17
2019-02-19T02:11:25.459Z,21.33
2019-02-19T02:13:53.605Z,21.67
2019-02-19T02:16:21.795Z,21.17
2019-02-19T02:18:49.942Z,22.40
2019-02-19T02:21:18.207Z,22.03
2019-02-19T02:23:46.401Z,23.23
2019-02-19T02:26:14.679Z,20.80
2019-02-19T02:28:42.846Z,23.33
2019-02-19T02:31:11.076Z,21.93
2019-02-19T02:33:39.363Z,23.37
2019-02-19T02:36:07.518Z,21.80
2019-02-19T02:38:35.784Z,22.80
2019-02-19T02:41:04.300Z,23.93
2019-02-19T02:43:32.529Z,25.60
2019-02-19T02:46:00.766Z,25.47
2019-02-19T02:48:28.917Z,24.47
2019-02-19T02:50:57.066Z,24.30
2019-02-19T02:53:25.253Z,23.63
2019-02-19T02:55:53.407Z,19.53
2019-02-19T02:58:21.563Z,19.37
2019-02-19T03:00:49.763Z,20.73
2019-02-19T03:03:17.910Z,21.07
2019-02-19T03:06:00.657Z,19.87
2019-02-19T03:08:28.823Z,17.67
2019-02-19T03:10:56.964Z,20.53
2019-02-19T03:13:25.238Z,20.20
2019-02-19T03:16:02.220Z,20.13
2019-02-19T03:18:23.483Z,20.50
2019-02-19T03:20:51.716Z,21.00
2019-02-19T03:23:19.873Z,23.77
2019-02-19T03:25:48.021Z,23.33
2019-02-19T03:28:16.203Z,26.23
2019-02-19T03:30:44.368Z,26.53
2019-02-19T03:33:12.555Z,27.07
2019-02-19T03:35:40.825Z,26.33
2019-02-19T03:38:08.972Z,28.73
2019-02-19T03:40:37.185Z,35.63
2019-02-19T03:43:06.427Z,35.23
2019-02-19T03:45:34.579Z,34.93
2019-02-19T03:48:02.808Z,37.43
2019-02-19T03:50:31.002Z,37.60
2019-02-19T03:52:59.287Z,38.97
2019-02-19T03:55:27.439Z,40.20
2019-02-19T03:57:55.635Z,29.47
2019-02-19T04:00:23.788Z,26.40
2019-02-19T04:02:51.946Z,29.60
2019-02-19T04:05:20.283Z,27.70
2019-02-19T04:07:48.438Z,27.00
2019-02-19T04:10:16.828Z,24.90
2019-02-19T04:12:45.023Z,21.87
2019-02-19T04:15:13.175Z,23.30
2019-02-19T04:17:41.451Z,27.17
2019-02-19T04:20:09.647Z,28.40
2019-02-19T04:22:37.800Z,25.93
2019-02-19T04:25:05.961Z,25.07
2019-02-19T04:27:34.220Z,24.97
2019-02-19T04:30:02.372Z,24.80
2019-02-19T04:32:30.523Z,16.73
2019-02-19T04:34:58.717Z,20.77
2019-02-19T04:37:26.871Z,18.90
2019-02-19T04:39:55.027Z,20.10
2019-02-19T04:42:23.266Z,20.57
2019-02-19T04:44:52.384Z,27.87
2019-02-19T04:47:20.541Z,35.90
2019-02-19T04:49:48.891Z,31.37
2019-02-19T04:52:17.049Z,30.43
2019-02-19T04:54:45.340Z,32.00
2019-02-19T04:57:13.538Z,29.87
2019-02-19T04:59:41.919Z,31.30
2019-02-19T05:02:10.075Z,28.97
2019-02-19T05:04:38.267Z,28.67
2019-02-19T05:07:06.419Z,27.70
2019-02-19T05:09:34.581Z,29.17
2019-02-19T05:12:02.973Z,28.50
2019-02-19T05:14:31.112Z,27.80
2019-02-19T05:16:59.273Z,27.33
2019-02-19T05:19:27.466Z,26.20
2019-02-19T05:21:55.630Z,25.27
2019-02-19T05:24:23.787Z,24.93
2019-02-19T05:26:51.971Z,25.53
2019-02-19T05:29:20.192Z,24.20
2019-02-19T05:31:48.343Z,26.40
2019-02-19T05:34:16.522Z,22.47
2019-02-19T05:36:44.699Z,21.80
2019-02-19T05:39:12.853Z,20.63
2019-02-19T05:41:41.042Z,19.40
2019-02-19T05:44:09.317Z,19.70
2019-02-19T05:46:38.443Z,20.20
2019-02-19T05:49:06.711Z,20.87
2019-02-19T05:51:34.872Z,24.10
2019-02-19T05:54:03.053Z,28.43
2019-02-19T05:56:31.404Z,27.93
2019-02-19T05:58:59.631Z,28.47
2019-02-19T06:01:30.066Z,34.20
2019-02-19T06:03:58.275Z,34.37
2019-02-19T06:06:26.424Z,30.83
2019-02-19T06:08:54.637Z,33.87
2019-02-19T06:11:22.881Z,29.93
2019-02-19T06:13:51.107Z,33.60
2019-02-19T06:16:19.264Z,31.60
2019-02-19T06:18:47.488Z,35.57
2019-02-19T06:21:15.660Z,47.47
2019-02-19T06:23:43.890Z,45.37
2019-02-19T06:26:12.092Z,44.17
2019-02-19T06:28:40.344Z,42.97
2019-02-19T06:31:08.477Z,40.43
2019-02-19T06:33:37.202Z,34.27
2019-02-19T06:36:05.374Z,39.53
2019-02-19T06:38:33.537Z,52.97
2019-02-19T06:41:02.088Z,46.57
2019-02-19T06:43:30.371Z,49.40
2019-02-19T06:45:58.537Z,52.87
2019-02-19T06:48:27.619Z,52.30
2019-02-19T06:50:55.810Z,54.80
2019-02-19T06:53:23.958Z,53.27
2019-02-19T06:55:52.368Z,56.70
2019-02-19T06:58:20.526Z,57.50
2019-02-19T07:00:48.678Z,57.63
2019-02-19T07:03:18.522Z,57.53
2019-02-19T07:05:46.723Z,52.10
2019-02-19T07:08:16.518Z,51.33
2019-02-19T07:10:44.811Z,45.23
2019-02-19T07:13:13.356Z,40.47
2019-02-19T07:15:41.519Z,42.13
2019-02-19T07:18:09.716Z,45.20
2019-02-19T07:20:37.970Z,41.50
2019-02-19T07:23:06.490Z,43.03
2019-02-19T07:25:34.679Z,42.87
2019-02-19T07:28:02.906Z,34.60
2019-02-19T07:30:31.233Z,27.23
2019-02-19T07:32:59.559Z,28.37
2019-02-19T07:35:27.720Z,36.50
2019-02-19T07:37:55.867Z,34.37
2019-02-19T07:40:24.140Z,37.90
2019-02-19T07:42:52.290Z,45.97
2019-02-19T07:45:20.668Z,39.83
2019-02-19T07:47:49.156Z,30.47
2019-02-19T07:50:21.199Z,26.60
2019-02-19T07:52:49.360Z,26.67
2019-02-19T07:55:17.551Z,27.27
2019-02-19T07:57:45.891Z,20.07
2019-02-19T08:00:14.245Z,23.10
2019-02-19T08:02:42.431Z,20.73
2019-02-19T08:05:10.659Z,17.60
2019-02-19T08:07:38.813Z,22.50
2019-02-19T08:10:08.636Z,31.47
2019-02-19T08:12:37.223Z,39.13
2019-02-19T08:15:07.293Z,74.07
2019-02-19T08:17:35.488Z,64.20
2019-02-19T08:20:04.875Z,52.83
2019-02-19T08:22:33.276Z,44.23
2019-02-19T08:25:01.476Z,43.47
2019-02-19T08:27:29.635Z,49.20
2019-02-19T08:29:57.809Z,41.97
2019-02-19T08:32:29.242Z,34.60
2019-02-19T08:34:57.395Z,39.23
2019-02-19T08:37:25.554Z,22.67
2019-02-19T08:39:53.941Z,23.20
2019-02-19T08:42:24.431Z,28.00
2019-02-19T08:44:52.319Z,26.10
2019-02-19T08:47:20.568Z,28.90
2019-02-19T08:49:48.870Z,30.47
2019-02-19T08:52:18.822Z,30.07
2019-02-19T08:54:47.281Z,28.97
2019-02-19T08:57:15.695Z,28.70
2019-02-19T08:59:43.856Z,29.17
2019-02-19T09:02:12.206Z,27.93
2019-02-19T09:04:40.376Z,27.10
2019-02-19T09:07:08.525Z,45.60
2019-02-19T09:09:36.734Z,33.33
2019-02-19T09:12:04.895Z,39.57
2019-02-19T09:14:33.313Z,33.57
2019-02-19T09:17:01.757Z,31.23
2019-02-19T09:19:29.903Z,31.50
2019-02-19T09:21:58.495Z,42.03
2019-02-19T09:24:28.024Z,36.23
2019-02-19T09:26:56.155Z,32.00
2019-02-19T09:29:24.380Z,32.07
2019-02-19T09:31:53.655Z,34.50
2019-02-19T09:34:21.795Z,27.00
2019-02-19T09:36:50.090Z,18.60
2019-02-19T09:39:18.393Z,17.97
2019-02-19T09:41:49.508Z,14.60
2019-02-19T09:44:18.788Z,14.97
2019-02-19T09:46:46.916Z,17.87
2019-02-19T09:49:15.365Z,19.67
2019-02-19T09:51:45.495Z,16.73
2019-02-19T09:54:14.689Z,13.23
2019-02-19T09:56:44.460Z,26.43
2019-02-19T09:59:12.982Z,13.93
2019-02-19T10:01:41.243Z,15.63
2019-02-19T10:04:11.236Z,58.17
2019-02-19T10:06:41.287Z,74.50
2019-02-19T10:09:10.005Z,26.33
2019-02-19T10:11:38.164Z,17.53
2019-02-19T10:14:08.771Z,13.77
2019-02-19T10:16:41.649Z,36.40
2019-02-19T10:19:06.851Z,14.03
2019-02-19T10:21:35.341Z,11.70
2019-02-19T10:24:03.929Z,11.33
2019-02-19T10:26:32.231Z,18.90
2019-02-19T10:29:00.386Z,10.30
2019-02-19T10:31:28.589Z,9.00
2019-02-19T10:33:56.937Z,7.53
2019-02-19T10:36:25.404Z,9.00
2019-02-19T10:38:54.967Z,9.00
2019-02-19T10:41:23.311Z,8.97
2019-02-19T10:43:51.622Z,9.40
2019-02-19T10:46:19.807Z,9.57
2019-02-19T10:48:48.427Z,9.23
2019-02-19T10:51:16.859Z,8.23
2019-02-19T10:53:46.938Z,8.30
2019-02-19T10:56:16.064Z,7.87
2019-02-19T10:58:44.843Z,8.27
2019-02-19T11:01:13.179Z,6.77
2019-02-19T11:03:41.327Z,7.27
2019-02-19T11:06:09.751Z,7.07
2019-02-19T11:08:38.026Z,7.33
2019-02-19T11:11:06.467Z,7.03
2019-02-19T11:13:34.617Z,7.17
2019-02-19T11:16:03.491Z,7.30
2019-02-19T11:18:32.039Z,7.20
2019-02-19T11:21:00.584Z,7.70
2019-02-19T11:23:29.039Z,7.43
2019-02-19T11:25:57.455Z,8.20
2019-02-19T11:28:27.252Z,7.63
2019-02-19T11:30:55.621Z,7.03
2019-02-19T11:33:28.309Z,8.13
2019-02-19T11:35:56.477Z,9.07
2019-02-19T11:38:24.932Z,7.97
2019-02-19T11:40:53.088Z,9.90
2019-02-19T11:43:21.509Z,8.07
2019-02-19T11:45:49.704Z,9.25
2019-02-19T11:48:19.181Z,9.40
2019-02-19T11:50:47.391Z,8.48
2019-02-19T11:53:15.659Z,7.55
2019-02-19T11:55:43.822Z,11.50
2019-02-19T11:58:12.967Z,11.73
2019-02-19T12:00:43.095Z,10.80
2019-02-19T12:03:11.583Z,10.68
2019-02-19T12:05:39.744Z,11.80
2019-02-19T12:08:07.938Z,11.60
2019-02-19T12:10:36.259Z,9.73
2019-02-19T12:13:04.428Z,8.88
2019-02-19T12:15:35.158Z,10.57
2019-02-19T12:18:02.801Z,9.45
2019-02-19T12:20:30.951Z,9.83
2019-02-19T12:22:59.161Z,8.53
2019-02-19T12:25:27.307Z,9.13
2019-02-19T12:27:55.632Z,9.35
2019-02-19T12:30:24.326Z,10.35
2019-02-19T12:32:52.475Z,10.13
2019-02-19T12:35:20.636Z,10.40
2019-02-19T12:37:49.091Z,10.53
2019-02-19T12:40:17.267Z,11.70
2019-02-19T12:42:45.421Z,11.45
2019-02-19T12:45:14.575Z,11.03
2019-02-19T12:47:44.488Z,10.57
2019-02-19T12:50:19.957Z,10.40
2019-02-19T12:52:48.189Z,11.40
2019-02-19T12:55:16.353Z,11.60
2019-02-19T12:57:45.684Z,11.20
2019-02-19T13:00:16.501Z,11.38
2019-02-19T13:02:44.661Z,12.50
2019-02-19T13:05:13.981Z,12.00
2019-02-19T13:07:43.959Z,12.20
2019-02-19T13:10:12.188Z,14.20
2019-02-19T13:12:40.396Z,11.83
2019-02-19T13:15:12.937Z,13.07
2019-02-19T13:17:41.153Z,11.50
2019-02-19T13:20:10.780Z,12.20
2019-02-19T13:22:39.124Z,12.67
2019-02-19T13:25:08.281Z,11.47
2019-02-19T13:27:38.381Z,11.57
2019-02-19T13:30:08.332Z,22.90
2019-02-19T13:32:37.022Z,24.70
2019-02-19T13:35:06.672Z,12.23
2019-02-19T13:37:34.829Z,12.20
2019-02-19T13:40:03.367Z,12.80
2019-02-19T13:42:32.695Z,11.50
2019-02-19T13:45:02.902Z,12.20
2019-02-19T13:47:31.266Z,11.90
2019-02-19T13:49:59.642Z,13.67
2019-02-19T13:52:29.524Z,13.87
2019-02-19T13:54:58.258Z,13.27
2019-02-19T13:57:29.879Z,12.47
2019-02-19T13:59:58.039Z,14.13
2019-02-19T14:02:27.431Z,18.70
2019-02-19T14:04:56.068Z,13.63
2019-02-19T14:07:24.550Z,15.33
2019-02-19T14:09:53.031Z,14.70
2019-02-19T14:12:21.397Z,16.00
2019-02-19T14:14:51.634Z,14.90
2019-02-19T14:17:20.188Z,17.50
2019-02-19T14:19:50.226Z,17.23
2019-02-19T14:22:35.435Z,21.23
2019-02-19T14:25:05.933Z,14.23
2019-02-19T14:27:51.105Z,13.93
2019-02-19T14:30:39.065Z,13.63
2019-02-19T14:33:22.258Z,13.47
2019-02-19T14:35:52.276Z,14.90
2019-02-19T14:38:31.303Z,13.70
2019-02-19T14:41:04.660Z,14.13
2019-02-19T14:43:37.532Z,15.50
2019-02-19T14:46:16.049Z,16.20
2019-02-19T14:48:48.767Z,15.07
2019-02-19T14:51:36.692Z,15.23
2019-02-19T14:54:24.628Z,13.50
2019-02-19T14:57:11.637Z,12.53
2019-02-19T14:59:44.947Z,24.70
2019-02-19T15:02:31.395Z,15.23
2019-02-19T15:05:05.217Z,14.10
2019-02-19T15:07:35.227Z,15.20
2019-02-19T15:10:08.438Z,14.67
2019-02-19T15:12:48.291Z,16.73
2019-02-19T15:15:24.073Z,17.17
2019-02-19T15:17:55.367Z,21.00
2019-02-19T15:20:37.256Z,19.00
2019-02-19T15:23:16.406Z,20.67
2019-02-19T15:26:04.809Z,18.33
2019-02-19T15:28:41.031Z,20.07
2019-02-19T15:31:25.859Z,23.37
2019-02-19T15:33:55.726Z,35.33
2019-02-19T15:36:41.744Z,39.17
2019-02-19T15:39:14.731Z,139.03
2019-02-19T15:41:44.646Z,139.00
2019-02-19T15:44:17.473Z,94.27
2019-02-19T15:46:50.561Z,47.33
2019-02-19T15:49:37.154Z,33.23
2019-02-19T15:52:22.736Z,27.80
2019-02-19T15:54:54.627Z,25.00
2019-02-19T15:57:33.851Z,22.37
2019-02-19T16:00:20.219Z,20.30
2019-02-19T16:02:53.174Z,24.17
2019-02-19T16:05:36.051Z,22.70
2019-02-19T16:08:06.398Z,20.50
2019-02-19T16:10:36.201Z,61.50
2019-02-19T16:13:09.330Z,75.07
2019-02-19T16:15:45.276Z,50.27
2019-02-19T16:18:15.369Z,33.00
2019-02-19T16:20:54.330Z,51.13
2019-02-19T16:23:24.343Z,34.70
2019-02-19T16:25:54.151Z,40.67
2019-02-19T16:28:39.640Z,34.93
2019-02-19T16:31:12.277Z,37.17
2019-02-19T16:34:00.912Z,47.17
2019-02-19T16:36:36.714Z,47.47
2019-02-19T16:39:23.356Z,87.20
2019-02-19T16:41:53.254Z,88.40
2019-02-19T16:44:23.369Z,93.07
2019-02-19T16:47:11.035Z,133.47
2019-02-19T16:50:06.881Z,115.43
2019-02-19T16:52:40.758Z,127.30
2019-02-19T16:55:22.360Z,140.50
2019-02-19T16:57:52.665Z,105.60
2019-02-19T17:00:38.336Z,111.90
2019-02-19T17:03:08.888Z,157.30
2019-02-19T17:05:47.856Z,109.33
2019-02-19T17:08:27.776Z,118.13
2019-02-19T17:10:58.895Z,145.50
2019-02-19T17:13:47.519Z,134.43
2019-02-19T17:16:18.319Z,73.30
2019-02-19T17:19:06.604Z,72.23
2019-02-19T17:21:40.452Z,42.73
2019-02-19T17:24:10.686Z,45.10
2019-02-19T17:26:43.408Z,44.77
2019-02-19T17:29:26.243Z,58.07
2019-02-19T17:31:57.145Z,45.90
2019-02-19T17:34:45.040Z,40.77
2019-02-19T17:37:20.764Z,31.63
2019-02-19T17:39:53.385Z,33.87
2019-02-19T17:42:35.757Z,24.33
2019-02-19T17:45:15.894Z,25.90
2019-02-19T17:47:54.770Z,32.83
2019-02-19T17:50:42.151Z,29.53
2019-02-19T17:53:17.896Z,33.30
2019-02-19T17:55:48.142Z,38.50
2019-02-19T17:58:33.060Z,45.13
2019-02-19T18:01:15.775Z,45.57
2019-02-19T18:03:51.905Z,58.70
2019-02-19T18:06:37.134Z,50.27
2019-02-19T18:09:23.431Z,52.60
2019-02-19T18:11:59.693Z,37.27
2019-02-19T18:14:32.582Z,43.57
2019-02-19T18:17:02.581Z,29.50
2019-02-19T18:19:30.753Z,24.43
2019-02-19T18:21:59.121Z,34.80
2019-02-19T18:24:27.461Z,29.80
2019-02-19T18:26:55.896Z,26.27
2019-02-19T18:29:24.173Z,30.57
2019-02-19T18:31:52.436Z,30.03
2019-02-19T18:34:20.720Z,29.17
2019-02-19T18:36:48.922Z,30.57
2019-02-19T18:39:17.125Z,30.43
2019-02-19T18:41:45.460Z,31.93
2019-02-19T18:44:13.579Z,30.53
2019-02-19T18:46:41.860Z,35.03
2019-02-19T18:49:10.020Z,34.50
2019-02-19T18:51:38.177Z,30.57
2019-02-19T18:54:06.612Z,31.83
2019-02-19T18:56:34.993Z,33.73
2019-02-19T18:59:03.494Z,33.33
2019-02-19T19:01:31.697Z,28.50
2019-02-19T19:03:59.987Z,28.20
2019-02-19T19:06:28.574Z,52.90
2019-02-19T19:08:58.252Z,35.53
2019-02-19T19:11:28.976Z,39.10
2019-02-19T19:13:58.160Z,40.67
2019-02-19T19:16:26.551Z,36.43
2019-02-19T19:18:55.596Z,30.80
2019-02-19T19:21:24.294Z,30.53
2019-02-19T19:23:52.636Z,33.40
2019-02-19T19:26:21.046Z,33.40
2019-02-19T19:28:49.471Z,37.00
2019-02-19T19:31:18.013Z,44.37
2019-02-19T19:33:46.784Z,48.53
2019-02-19T19:36:15.398Z,37.60
2019-02-19T19:38:43.735Z,47.13
2019-02-19T19:41:12.353Z,46.50
2019-02-19T19:43:40.819Z,36.77
2019-02-19T19:46:11.304Z,88.90
2019-02-19T19:48:39.539Z,74.30
2019-02-19T19:51:17.106Z,72.53
2019-02-19T19:53:38.928Z,45.93
2019-02-19T19:56:08.424Z,40.87
2019-02-19T19:58:36.741Z,55.37
2019-02-19T20:01:05.619Z,42.83
2019-02-19T20:03:34.005Z,45.27
2019-02-19T20:06:04.332Z,38.27
2019-02-19T20:08:32.635Z,40.57
2019-02-19T20:11:02.306Z,40.03
2019-02-19T20:13:33.924Z,33.43
2019-02-19T20:16:02.501Z,38.60
2019-02-19T20:18:38.913Z,43.00
2019-02-19T20:21:01.127Z,56.40
2019-02-19T20:23:29.503Z,46.63
2019-02-19T20:25:57.875Z,42.00
2019-02-19T20:28:32.648Z,38.40
2019-02-19T20:31:04.448Z,38.70
2019-02-19T20:33:34.268Z,40.80
2019-02-19T20:36:02.648Z,40.43
2019-02-19T20:38:33.001Z,43.23
2019-02-19T20:41:01.680Z,59.77
2019-02-19T20:43:30.355Z,68.47
2019-02-19T20:45:59.652Z,66.57
2019-02-19T20:48:27.951Z,70.47
2019-02-19T20:50:56.109Z,70.40
2019-02-19T20:53:24.495Z,91.63
2019-02-19T20:55:52.727Z,78.37
2019-02-19T20:58:20.968Z,112.90
2019-02-19T21:00:49.525Z,112.07
2019-02-19T21:03:17.754Z,104.20
2019-02-19T21:05:46.275Z,105.10
2019-02-19T21:08:14.735Z,105.00
2019-02-19T21:10:43.017Z,118.47
2019-02-19T21:13:11.449Z,175.97
2019-02-19T21:15:41.056Z,215.63
2019-02-19T21:18:09.290Z,222.57
2019-02-19T21:20:38.063Z,240.63
2019-02-19T21:23:06.514Z,217.23
2019-02-19T21:25:37.157Z,145.07
2019-02-19T21:28:05.093Z,150.97
2019-02-19T21:30:38.228Z,146.10
2019-02-19T21:33:07.154Z,145.07
2019-02-19T21:35:37.606Z,133.27
2019-02-19T21:38:14.712Z,135.90
2019-02-19T21:40:45.798Z,142.73
2019-02-19T21:43:14.965Z,148.50
2019-02-19T21:45:44.675Z,147.90
2019-02-19T21:48:13.155Z,164.50
2019-02-19T21:50:41.888Z,160.70
2019-02-19T21:53:10.955Z,174.13
2019-02-19T21:55:39.135Z,169.47
2019-02-19T21:58:08.093Z,171.80
2019-02-19T22:00:36.895Z,173.63
2019-02-19T22:03:05.118Z,167.70
2019-02-19T22:05:34.152Z,95.20
2019-02-19T22:08:02.833Z,114.87
2019-02-19T22:10:31.418Z,122.20
2019-02-19T22:12:59.895Z,114.07
2019-02-19T22:15:28.174Z,112.27
2019-02-19T22:17:58.001Z,132.30
2019-02-19T22:20:32.411Z,161.73
2019-02-19T22:23:02.213Z,140.50
2019-02-19T22:25:30.866Z,143.37
2019-02-19T22:27:59.380Z,139.97
2019-02-19T22:30:27.697Z,137.93
2019-02-19T22:32:57.759Z,132.47
2019-02-19T22:35:26.021Z,113.47
2019-02-19T22:37:54.361Z,47.47
2019-02-19T22:40:22.776Z,51.90
2019-02-19T22:42:51.456Z,92.70
2019-02-19T22:45:19.633Z,80.37
2019-02-19T22:47:53.394Z,87.73
2019-02-19T22:50:17.792Z,88.33
2019-02-19T22:52:46.222Z,90.63
2019-02-19T22:55:27.981Z,71.63
2019-02-19T22:57:56.330Z,77.70
2019-02-19T23:00:45.674Z,75.90
2019-02-19T23:03:14.551Z,95.40
2019-02-19T23:05:42.935Z,94.47
2019-02-19T23:08:11.305Z,82.00
2019-02-19T23:10:39.944Z,68.47
2019-02-19T23:13:08.300Z,69.20
2019-02-19T23:15:36.503Z,77.23
2019-02-19T23:18:04.651Z,76.73
2019-02-19T23:20:34.016Z,90.50
2019-02-19T23:23:02.542Z,88.07
2019-02-19T23:25:30.692Z,83.87
2019-02-19T23:27:58.856Z,81.10
2019-02-19T23:30:27.414Z,74.13
2019-02-19T23:32:56.046Z,77.53
2019-02-19T23:35:28.874Z,69.77
2019-02-19T23:37:57.419Z,67.27
2019-02-19T23:40:25.845Z,62.13
2019-02-19T23:42:54.286Z,62.90
2019-02-19T23:45:22.646Z,63.80
2019-02-19T23:47:50.975Z,63.40
2019-02-19T23:50:19.609Z,62.53
2019-02-19T23:52:48.027Z,62.00
2019-02-19T23:55:16.319Z,65.63
2019-02-19T23:57:44.628Z,62.23
